Time;durP1;ratioP1;P1;durP2;ratioP2;P2;SDS_P1;SDS_P2;PMS_P1;PMS_P2;Temp;Humidity;BMP_temperature;BMP_pressure;BME280_temperature;BME280_humidity;BME280_pressure;Samples;Min_cycle;Max_cycle;Signal;HPM_P1;HPM_P2
2023/02/25 00:02:20;;;;;;;11.00;5.70;;;;;;;9.95;62.79;96867.33;234346;1204;138024;-63
2023/02/25 00:09:21;;;;;;;15.60;6.20;;;;;;;9.88;62.62;96844.36;234296;1201;141223;-65
2023/02/25 00:15:52;;;;;;;12.10;5.60;;;;;;;9.80;62.46;96831.55;233845;1207;139166;-67
2023/02/25 00:23:06;;;;;;;9.80;5.80;;;;;;;9.78;62.29;96810.12;234596;1202;137995;-65
2023/02/25 00:29:17;;;;;;;;;;;;;;;;;;;;;
2023/02/25 00:42:19;;;;;;;10.40;5.30;;;;;;;9.56;62.19;96827.02;234323;1204;138592;-63
2023/02/25 00:48:52;;;;;;;8.30;4.70;;;;;;;9.46;62.70;96833.64;234739;1202;138528;-63
2023/02/25 01:02:44;;;;;;;;;;;;;;;;;;;;;
2023/02/25 02:04:57;;;;;;;11.30;5.60;;;;;;;9.00;66.98;96754.18;233635;1209;635277;-68
2023/02/25 02:10:04;;;;;;;13.40;6.70;;;;;;;8.89;67.25;96765.87;235166;1195;138361;-71
2023/02/25 02:15:11;;;;;;;10.90;6.30;;;;;;;8.85;67.09;96768.38;235160;1196;137580;-71
2023/02/25 02:20:48;;;;;;;10.80;6.20;;;;;;;8.72;66.85;96754.64;235163;1194;138520;-70
2023/02/25 02:26:07;;;;;;;9.50;6.00;;;;;;;8.60;65.61;96740.59;235217;1194;138518;-70
2023/02/25 02:31:33;;;;;;;11.00;6.30;;;;;;;8.53;65.74;96726.89;235318;1195;138493;-71
2023/02/25 02:36:45;;;;;;;;;;;;;;;8.49;65.83;96714.33;235244;1197;138532;-71
2023/02/25 02:42:12;;;;;;;14.90;6.60;;;;;;;8.43;65.68;96713.29;235401;1196;124430;-71
2023/02/25 02:47:20;;;;;;;12.10;6.80;;;;;;;8.42;65.63;96710.23;235360;1195;138200;-71
2023/02/25 02:52:29;;;;;;;14.90;7.10;;;;;;;8.39;65.51;96719.14;232266;1198;140255;-72
2023/02/25 02:57:35;;;;;;;11.40;6.90;;;;;;;8.38;65.62;96720.29;235233;1193;138124;-70
2023/02/25 03:02:41;;;;;;;10.40;6.40;;;;;;;8.31;65.54;96709.23;235245;1195;138444;-70
2023/02/25 03:07:59;;;;;;;12.10;6.90;;;;;;;8.23;65.76;96702.13;235182;1195;138338;-70
2023/02/25 03:13:03;;;;;;;12.10;7.30;;;;;;;8.22;65.74;96706.88;232664;1196;137971;-71
2023/02/25 03:18:32;;;;;;;11.10;6.90;;;;;;;8.28;65.85;96711.27;230021;1198;138991;-71
2023/02/25 03:23:40;;;;;;;13.80;7.30;;;;;;;8.27;65.89;96719.77;231662;1198;137921;-71
2023/02/25 03:28:45;;;;;;;12.00;7.20;;;;;;;8.24;65.84;96725.60;235380;1195;137718;-71
2023/02/25 03:34:11;;;;;;;9.70;6.80;;;;;;;8.25;66.16;96726.16;235302;1195;138866;-71
2023/02/25 03:39:25;;;;;;;13.60;7.10;;;;;;;8.37;66.21;96728.20;232864;1196;138478;-71
2023/02/25 03:44:46;;;;;;;16.10;7.70;;;;;;;8.35;66.01;96731.17;234378;1193;138273;-70
2023/02/25 03:49:58;;;;;;;15.30;8.30;;;;;;;8.31;65.96;96731.80;235073;1195;139172;-71
2023/02/25 03:55:02;;;;;;;16.00;8.70;;;;;;;8.23;66.59;96737.17;232064;1193;139263;-71
2023/02/25 04:00:17;;;;;;;17.30;10.80;;;;;;;8.11;67.15;96745.16;234751;1193;137995;-70
2023/02/25 04:05:26;;;;;;;16.20;11.10;;;;;;;7.98;67.44;96764.30;234505;1193;138129;-71
2023/02/25 04:10:30;;;;;;;16.40;10.50;;;;;;;7.90;67.44;96765.35;235218;1194;138684;-70
2023/02/25 04:15:35;;;;;;;16.00;11.30;;;;;;;7.85;67.11;96776.59;235444;1196;138460;-70
2023/02/25 04:20:39;;;;;;;18.80;11.00;;;;;;;7.78;67.16;96783.53;235250;1193;138570;-71
2023/02/25 04:25:43;;;;;;;17.10;10.30;;;;;;;7.66;66.85;96795.48;235175;1195;138235;-70
2023/02/25 04:30:47;;;;;;;16.60;10.30;;;;;;;7.54;66.61;96812.77;234225;1195;138910;-71
2023/02/25 04:35:51;;;;;;;13.00;8.90;;;;;;;7.45;66.59;96816.84;235363;1193;138788;-71
2023/02/25 04:40:54;;;;;;;13.70;8.70;;;;;;;7.47;65.93;96820.96;233486;1193;140451;-72
2023/02/25 04:45:58;;;;;;;12.80;8.90;;;;;;;7.40;65.36;96821.92;235402;1197;138620;-71
2023/02/25 04:51:02;;;;;;;14.90;8.20;;;;;;;7.30;65.54;96829.78;235381;1193;138238;-69
2023/02/25 04:56:08;;;;;;;12.40;8.00;;;;;;;7.09;65.81;96839.46;234842;1195;139077;-71
2023/02/25 05:01:12;;;;;;;11.60;6.50;;;;;;;6.92;65.92;96837.19;235462;1193;138934;-71
2023/02/25 05:06:15;;;;;;;9.50;6.00;;;;;;;6.79;65.66;96839.48;231043;1193;139057;-70
2023/02/25 05:11:20;;;;;;;10.30;5.80;;;;;;;6.72;65.71;96855.02;235386;1193;137875;-71
2023/02/25 05:16:25;;;;;;;6.80;4.20;;;;;;;6.58;65.76;96851.27;233781;1195;138007;-72
2023/02/25 05:21:29;;;;;;;3.40;2.50;;;;;;;6.47;65.62;96855.31;232848;1194;138251;-71
2023/02/25 05:26:32;;;;;;;4.70;3.00;;;;;;;6.31;65.67;96855.86;235202;1193;138479;-71
2023/02/25 05:31:37;;;;;;;4.90;3.30;;;;;;;6.40;65.74;96864.18;235453;1193;138948;-72
2023/02/25 05:36:41;;;;;;;5.20;3.10;;;;;;;6.42;65.80;96872.83;235420;1193;138526;-68
2023/02/25 05:41:44;;;;;;;4.50;3.00;;;;;;;6.43;65.80;96871.19;235444;1193;138302;-68
2023/02/25 05:46:48;;;;;;;4.50;3.30;;;;;;;6.46;65.51;96879.70;235484;1193;138425;-70
2023/02/25 05:51:51;;;;;;;5.20;3.80;;;;;;;6.38;65.54;96884.58;235405;1195;138423;-71
2023/02/25 05:56:55;;;;;;;8.00;4.30;;;;;;;6.34;65.49;96877.80;235272;1193;139015;-71
2023/02/25 06:01:59;;;;;;;7.40;5.10;;;;;;;6.31;65.67;96886.86;235057;1196;138179;-71
2023/02/25 06:07:03;;;;;;;7.30;5.00;;;;;;;6.28;65.52;96885.33;232692;1193;140040;-70
2023/02/25 06:12:07;;;;;;;8.60;4.20;;;;;;;6.23;65.84;96874.84;235424;1196;138546;-71
2023/02/25 06:17:10;;;;;;;7.70;4.30;;;;;;;6.18;66.12;96888.45;235345;1193;138322;-71
2023/02/25 06:22:13;;;;;;;6.90;5.00;;;;;;;6.20;66.22;96880.55;235355;1193;139987;-70
2023/02/25 06:27:17;;;;;;;7.30;4.80;;;;;;;6.29;66.29;96884.08;235295;1198;138791;-71
2023/02/25 06:32:21;;;;;;;7.70;5.30;;;;;;;6.37;66.13;96897.14;235253;1193;138518;-71
2023/02/25 06:37:24;;;;;;;8.20;5.70;;;;;;;6.41;65.89;96885.41;235365;1198;138679;-71
2023/02/25 06:42:28;;;;;;;8.60;5.60;;;;;;;6.40;65.95;96895.52;235354;1197;138746;-76
2023/02/25 06:47:31;;;;;;;13.50;6.50;;;;;;;6.39;65.72;96894.66;235414;1193;137917;-78
2023/02/25 06:52:35;;;;;;;47.60;31.80;;;;;;;6.37;65.95;96895.91;235334;1198;138432;-78
2023/02/25 06:57:38;;;;;;;12.10;8.60;;;;;;;6.32;66.26;96893.16;235417;1193;138148;-78
2023/02/25 07:02:42;;;;;;;13.00;8.60;;;;;;;6.32;66.55;96889.44;235380;1193;138250;-78
2023/02/25 07:07:45;;;;;;;12.60;8.80;;;;;;;6.38;66.93;96874.92;235335;1193;138622;-77
2023/02/25 07:12:50;;;;;;;33.90;20.70;;;;;;;6.42;66.91;96876.72;232197;1193;139012;-77
2023/02/25 07:17:54;;;;;;;14.30;9.90;;;;;;;6.36;67.26;96881.91;235463;1193;139345;-75
2023/02/25 07:23:12;;;;;;;12.50;8.90;;;;;;;6.46;67.62;96880.77;235281;1196;139951;-77
2023/02/25 07:28:15;;;;;;;10.30;8.30;;;;;;;6.64;67.16;96878.25;235020;1199;138630;-77
2023/02/25 07:33:54;;;;;;;14.80;8.40;;;;;;;6.81;66.87;96868.91;231645;1193;138194;-78
2023/02/25 07:39:00;;;;;;;12.60;8.70;;;;;;;6.91;66.41;96864.95;234230;1193;138504;-76
2023/02/25 07:44:05;;;;;;;11.80;8.30;;;;;;;6.91;66.09;96869.03;235489;1197;139826;-76
2023/02/25 07:49:08;;;;;;;11.60;7.10;;;;;;;6.89;66.27;96870.20;235305;1193;138993;-76
2023/02/25 07:54:13;;;;;;;10.20;6.60;;;;;;;6.96;65.62;96860.81;235568;1193;137916;-76
2023/02/25 07:59:17;;;;;;;61.60;39.00;;;;;;;6.98;65.71;96854.52;235411;1196;138141;-74
2023/02/25 08:04:21;;;;;;;11.70;7.00;;;;;;;7.05;65.45;96851.45;235556;1193;138554;-71
2023/02/25 08:09:25;;;;;;;7.60;4.90;;;;;;;6.99;64.83;96855.86;235550;1196;138734;-71
2023/02/25 08:14:28;;;;;;;7.30;4.30;;;;;;;7.03;64.15;96852.15;235396;1196;138925;-71
2023/02/25 08:19:32;;;;;;;5.20;3.90;;;;;;;7.21;64.00;96852.77;234115;1196;138377;-72
2023/02/25 08:24:36;;;;;;;5.10;3.50;;;;;;;7.28;62.74;96844.91;230395;1193;138303;-73
2023/02/25 08:29:40;;;;;;;4.70;2.50;;;;;;;7.30;62.45;96846.41;233746;1196;138088;-82
2023/02/25 08:34:43;;;;;;;3.90;2.40;;;;;;;7.33;60.55;96852.26;231154;1193;137824;-75
2023/02/25 08:39:54;;;;;;;4.50;2.80;;;;;;;7.27;60.70;96851.19;235506;1193;138032;-76
2023/02/25 08:44:58;;;;;;;271.60;183.50;;;;;;;7.35;61.73;96857.25;235579;1194;139198;-77
2023/02/25 08:50:04;;;;;;;4.80;3.50;;;;;;;7.56;60.18;96859.38;235369;1193;141120;-74
2023/02/25 08:55:08;;;;;;;;;;;;;;;7.51;59.51;96868.24;235432;1193;141063;-76
2023/02/25 09:00:15;;;;;;;3.90;2.30;;;;;;;7.36;59.08;96876.94;235758;1192;124456;-78
2023/02/25 09:05:19;;;;;;;2.60;1.30;;;;;;;7.25;59.57;96880.34;234183;1192;138183;-79
2023/02/25 09:10:22;;;;;;;2.90;1.80;;;;;;;7.01;60.02;96884.42;235513;1193;138514;-80
2023/02/25 09:15:26;;;;;;;52.30;35.50;;;;;;;6.95;60.65;96884.00;230246;1196;138432;-79
2023/02/25 09:20:30;;;;;;;5.60;3.20;;;;;;;7.05;60.77;96871.70;233753;1196;138403;-74
2023/02/25 09:25:33;;;;;;;5.30;2.30;;;;;;;7.15;58.94;96866.36;235365;1193;138707;-78
2023/02/25 09:30:37;;;;;;;7.40;3.00;;;;;;;7.27;58.32;96856.80;235441;1196;138697;-82
2023/02/25 09:35:48;;;;;;;3.60;1.70;;;;;;;7.56;58.33;96863.78;235578;1193;138709;-81
2023/02/25 09:41:00;;;;;;;4.40;1.90;;;;;;;7.58;56.02;96856.89;233709;1196;138520;-80
2023/02/25 09:46:12;;;;;;;3.10;2.00;;;;;;;7.37;57.68;96873.45;230944;1195;139537;-91
2023/02/25 09:51:21;;;;;;;3.90;2.10;;;;;;;7.16;59.75;96880.84;229567;1199;138189;-87
2023/02/25 09:56:29;;;;;;;3.00;1.80;;;;;;;7.02;59.93;96891.20;234972;1196;137961;-75
2023/02/25 10:01:37;;;;;;;3.30;1.60;;;;;;;6.92;60.70;96881.41;235539;1193;138520;-77
2023/02/25 10:06:50;;;;;;;3.40;1.80;;;;;;;7.11;60.81;96880.17;235211;1193;137939;-72
2023/02/25 10:12:03;;;;;;;3.90;3.10;;;;;;;7.31;61.13;96872.39;235639;1192;138154;-73
2023/02/25 10:17:42;;;;;;;4.10;2.10;;;;;;;7.65;58.16;96869.39;235496;1193;137598;-70
2023/02/25 10:22:51;;;;;;;3.60;1.60;;;;;;;7.53;56.61;96868.75;232181;1196;142044;-71
2023/02/25 10:28:06;;;;;;;4.00;1.30;;;;;;;7.34;55.62;96866.65;232116;1193;138333;-71
2023/02/25 10:33:37;;;;;;;4.50;1.90;;;;;;;7.23;55.82;96864.20;235435;1196;139693;-76
2023/02/25 10:38:52;;;;;;;2.20;1.30;;;;;;;7.28;55.47;96861.02;234996;1192;138801;-74
2023/02/25 10:43:56;;;;;;;4.90;1.30;;;;;;;7.29;54.62;96851.42;232713;1193;138505;-75
2023/02/25 10:49:14;;;;;;;3.10;1.40;;;;;;;7.33;53.71;96850.89;233847;1193;137856;-74
2023/02/25 10:54:23;;;;;;;6.00;1.90;;;;;;;7.47;53.40;96848.46;229573;1197;138955;-75
2023/02/25 10:59:45;;;;;;;3.80;1.40;;;;;;;7.49;52.96;96841.23;231096;1192;138528;-76
2023/02/25 11:05:01;;;;;;;6.70;2.90;;;;;;;7.65;52.60;96851.35;229059;1193;139786;-67
2023/02/25 11:10:19;;;;;;;5.20;1.70;;;;;;;7.90;52.77;96843.37;233433;1192;138460;-69
2023/02/25 11:15:35;;;;;;;2.30;1.50;;;;;;;7.85;51.99;96849.29;233930;1193;138557;-78
2023/02/25 11:20:55;;;;;;;3.00;1.20;;;;;;;7.69;52.71;96857.73;234174;1196;139117;-78
2023/02/25 11:25:59;;;;;;;3.50;1.40;;;;;;;7.60;53.26;96866.98;232570;1192;138311;-77
2023/02/25 11:31:42;;;;;;;2.20;1.10;;;;;;;7.52;54.24;96885.11;233790;1193;139314;-78
2023/02/25 11:37:53;;;;;;;2.40;1.50;;;;;;;7.24;57.52;96903.16;235396;1192;138987;-79
2023/02/25 11:43:02;;;;;;;2.60;1.20;;;;;;;6.80;60.54;96904.45;235366;1195;139020;-75
2023/02/25 11:48:22;;;;;;;28.80;19.00;;;;;;;6.58;61.23;96905.91;235439;1193;138308;-75
2023/02/25 11:53:37;;;;;;;4.90;2.30;;;;;;;6.34;62.16;96915.91;235276;1193;138720;-71
2023/02/25 11:58:54;;;;;;;2.10;1.10;;;;;;;6.08;63.51;96932.75;235286;1193;138808;-72
2023/02/25 12:04:36;;;;;;;2.40;1.00;;;;;;;6.05;64.76;96923.30;235416;1193;138366;-71
2023/02/25 12:10:11;;;;;;;2.90;1.20;;;;;;;6.11;64.94;96923.70;235430;1193;139531;-75
2023/02/25 12:15:37;;;;;;;2.10;1.40;;;;;;;6.12;65.63;96925.91;235306;1195;138750;-75
2023/02/25 12:21:32;;;;;;;2.20;1.50;;;;;;;6.69;65.95;96921.77;235285;1193;138561;-73
2023/02/25 12:26:54;;;;;;;72.30;52.80;;;;;;;7.38;64.72;96919.40;235058;1192;141565;-72
2023/02/25 12:32:22;;;;;;;13.80;6.90;;;;;;;7.87;61.42;96917.75;234387;1192;139122;-74
2023/02/25 12:37:33;;;;;;;1.80;1.30;;;;;;;7.97;59.31;96917.11;234894;1192;139587;-73
2023/02/25 12:42:52;;;;;;;3.50;1.60;;;;;;;7.81;58.89;96920.76;232697;1192;138012;-74
2023/02/25 12:48:12;;;;;;;3.00;1.00;;;;;;;7.59;58.64;96933.56;234171;1196;140360;-75
2023/02/25 12:53:35;;;;;;;1.40;0.80;;;;;;;7.27;57.98;96946.80;232525;1193;138560;-73
2023/02/25 12:59:10;;;;;;;1.80;0.90;;;;;;;7.05;58.98;96947.73;235489;1193;138877;-72
2023/02/25 13:04:53;;;;;;;2.50;1.00;;;;;;;7.22;59.63;96948.26;234755;1192;138501;-72
2023/02/25 13:09:58;;;;;;;3.10;1.20;;;;;;;7.40;59.06;96949.05;231371;1193;138794;-74
2023/02/25 13:15:08;;;;;;;;;;;;;;;7.48;59.41;96951.23;233226;1193;138513;-73
2023/02/25 13:20:42;;;;;;;3.30;1.60;;;;;;;7.43;59.13;96959.03;235412;1193;125382;-71
2023/02/25 13:26:05;;;;;;;2.50;1.60;;;;;;;7.12;60.12;96976.06;235303;1192;139901;-76
2023/02/25 13:31:25;;;;;;;2.00;1.30;;;;;;;6.94;62.02;96970.46;235408;1193;139062;-71
2023/02/25 13:37:12;;;;;;;2.80;1.50;;;;;;;7.21;62.80;96981.89;235413;1192;139310;-68
2023/02/25 13:42:57;;;;;;;151.20;118.20;;;;;;;7.14;63.25;96987.73;231403;1192;138656;-74
2023/02/25 13:48:40;;;;;;;4.90;2.40;;;;;;;7.33;62.29;96986.13;235493;1196;161160;-75
2023/02/25 13:54:19;;;;;;;4.60;2.40;;;;;;;7.44;61.23;96994.83;233925;1193;139088;-72
2023/02/25 13:59:50;;;;;;;3.60;2.30;;;;;;;7.38;60.95;96998.14;235336;1196;139022;-75
2023/02/25 14:05:46;;;;;;;7.00;4.60;;;;;;;7.22;60.78;97020.27;235332;1193;138832;-73
2023/02/25 14:11:27;;;;;;;2.10;1.00;;;;;;;6.95;60.17;97049.21;231388;1193;138778;-72
2023/02/25 14:17:05;;;;;;;0.90;0.50;;;;;;;6.47;59.22;97058.77;229423;1197;138107;-74
2023/02/25 14:22:23;;;;;;;1.20;0.70;;;;;;;5.96;60.95;97061.23;229912;1196;138110;-71
2023/02/25 14:27:41;;;;;;;1.10;0.70;;;;;;;5.63;62.08;97064.70;235114;1192;138889;-74
2023/02/25 14:32:47;;;;;;;1.40;1.00;;;;;;;5.35;63.33;97060.80;235475;1193;138351;-75
2023/02/25 14:37:56;;;;;;;3.20;1.30;;;;;;;6.08;72.81;97060.23;233165;1192;138288;-72
2023/02/25 14:43:27;;;;;;;2.40;1.10;;;;;;;6.91;61.85;97056.55;235329;1193;139511;-73
2023/02/25 14:48:40;;;;;;;34.00;19.70;;;;;;;6.55;60.14;97054.61;235523;1193;139516;-72
2023/02/25 14:54:03;;;;;;;2.40;1.50;;;;;;;6.52;59.50;97063.83;232625;1193;138681;-74
2023/02/25 14:59:48;;;;;;;1.50;1.10;;;;;;;6.54;58.52;97072.14;233267;1193;138454;-74
2023/02/25 15:05:14;;;;;;;2.60;1.70;;;;;;;6.36;58.59;97088.83;235357;1193;138314;-73
2023/02/25 15:10:41;;;;;;;2.40;1.40;;;;;;;6.21;58.44;97099.70;235112;1193;139059;-72
2023/02/25 15:16:30;;;;;;;1.80;1.50;;;;;;;6.11;58.82;97111.34;233999;1193;138241;-73
2023/02/25 15:21:42;;;;;;;2.60;1.80;;;;;;;6.13;58.76;97111.38;232094;1192;138078;-73
2023/02/25 15:26:51;;;;;;;3.10;1.70;;;;;;;6.17;58.54;97112.13;230010;1197;138461;-74
2023/02/25 15:32:24;;;;;;;3.80;2.00;;;;;;;6.20;58.71;97121.27;234548;1193;138689;-74
2023/02/25 15:37:36;;;;;;;2.80;1.80;;;;;;;6.25;58.60;97133.02;235418;1193;139043;-76
2023/02/25 15:42:53;;;;;;;3.80;2.00;;;;;;;6.24;58.70;97134.67;232462;1193;139221;-72
2023/02/25 15:48:08;;;;;;;3.10;1.80;;;;;;;6.23;58.16;97142.67;234685;1193;138736;-74
2023/02/25 15:53:20;;;;;;;2.50;1.70;;;;;;;6.14;58.08;97142.80;233813;1193;139192;-72
2023/02/25 15:58:26;;;;;;;167.60;95.30;;;;;;;6.00;58.07;97153.89;233738;1193;138332;-73
2023/02/25 16:03:39;;;;;;;4.60;2.30;;;;;;;5.95;59.06;97161.99;233505;1192;138684;-72
2023/02/25 16:09:06;;;;;;;4.90;2.30;;;;;;;6.01;58.67;97178.33;230439;1198;138796;-75
2023/02/25 16:14:23;;;;;;;3.10;2.10;;;;;;;6.02;58.57;97185.42;233863;1192;138427;-73
2023/02/25 16:19:34;;;;;;;2.40;1.70;;;;;;;5.96;58.42;97190.79;232570;1193;138429;-73
2023/02/25 16:24:50;;;;;;;4.20;2.40;;;;;;;5.90;58.91;97196.30;233003;1192;138094;-73
2023/02/25 16:30:14;;;;;;;4.20;2.50;;;;;;;5.93;58.94;97208.27;232032;1193;138353;-73
2023/02/25 16:35:47;;;;;;;5.30;2.90;;;;;;;5.91;58.73;97220.35;235352;1192;138536;-72
2023/02/25 16:40:59;;;;;;;5.20;2.80;;;;;;;5.83;58.83;97234.34;232687;1193;138413;-72
2023/02/25 16:46:11;;;;;;;3.60;2.50;;;;;;;5.74;59.23;97239.15;234820;1193;138837;-73
2023/02/25 16:51:22;;;;;;;5.00;2.70;;;;;;;5.62;59.55;97255.16;234913;1196;137988;-71
2023/02/25 16:56:31;;;;;;;3.90;2.90;;;;;;;5.57;60.10;97268.67;234538;1194;138622;-74
2023/02/25 17:01:37;;;;;;;4.10;2.80;;;;;;;5.55;60.41;97284.86;235441;1193;138677;-73
2023/02/25 17:06:42;;;;;;;4.70;3.00;;;;;;;5.50;60.82;97292.41;235548;1193;138354;-73
2023/02/25 17:11:53;;;;;;;32.80;20.10;;;;;;;5.42;60.98;97301.89;235237;1193;138628;-72
2023/02/25 17:16:59;;;;;;;3.40;2.50;;;;;;;5.38;60.41;97318.89;234437;1193;138843;-74
2023/02/25 17:22:05;;;;;;;3.90;2.50;;;;;;;5.29;60.35;97322.52;235445;1192;139893;-72
2023/02/25 17:27:14;;;;;;;3.40;2.10;;;;;;;5.28;60.55;97330.14;233556;1193;138224;-75
2023/02/25 17:32:24;;;;;;;3.30;2.00;;;;;;;5.18;60.49;97337.13;233103;1196;138935;-72
2023/02/25 17:37:31;;;;;;;4.10;2.40;;;;;;;5.10;60.70;97339.46;235426;1192;138607;-71
2023/02/25 17:42:37;;;;;;;;;;;;;;;5.09;60.58;97342.52;235450;1193;138596;-72
2023/02/25 17:47:43;;;;;;;4.00;2.00;;;;;;;5.08;61.00;97353.77;235009;1193;124757;-72
2023/02/25 17:52:48;;;;;;;3.60;2.50;;;;;;;5.03;61.38;97357.13;235348;1193;138309;-72
2023/02/25 17:57:57;;;;;;;6.20;2.80;;;;;;;4.94;61.60;97366.88;232719;1193;139530;-75
2023/02/25 18:03:15;;;;;;;3.80;2.70;;;;;;;4.87;62.15;97366.11;235239;1195;139672;-73
2023/02/25 18:08:21;;;;;;;6.10;2.80;;;;;;;4.83;62.04;97380.08;235488;1194;138259;-73
2023/02/25 18:13:33;;;;;;;4.30;2.40;;;;;;;4.87;61.79;97387.19;235255;1198;139917;-72
2023/02/25 18:18:39;;;;;;;4.60;3.00;;;;;;;4.87;61.83;97383.49;235499;1192;138418;-75
2023/02/25 18:23:43;;;;;;;4.80;2.70;;;;;;;4.87;61.69;97385.59;235362;1193;139399;-76
2023/02/25 18:28:50;;;;;;;4.40;2.90;;;;;;;4.89;61.54;97387.56;235350;1196;138184;-82
2023/02/25 18:33:54;;;;;;;71.40;44.70;;;;;;;4.95;61.85;97388.58;235364;1193;138557;-85
2023/02/25 18:39:03;;;;;;;6.10;4.30;;;;;;;5.03;61.90;97396.84;232270;1194;138954;-78
2023/02/25 18:44:12;;;;;;;5.00;2.70;;;;;;;5.08;61.40;97398.63;235175;1193;138940;-77
2023/02/25 18:49:17;;;;;;;4.90;2.50;;;;;;;5.05;61.26;97400.75;231808;1196;138657;-76
2023/02/25 18:54:21;;;;;;;7.20;3.20;;;;;;;5.05;61.20;97409.75;233160;1192;139188;-78
2023/02/25 18:59:25;;;;;;;4.80;2.90;;;;;;;5.06;61.10;97416.55;235269;1193;138856;-76
2023/02/25 19:04:29;;;;;;;4.50;2.60;;;;;;;5.07;61.35;97419.48;232673;1192;138625;-74
2023/02/25 19:09:34;;;;;;;4.30;2.90;;;;;;;4.97;61.44;97419.89;234944;1193;138497;-76
2023/02/25 19:14:42;;;;;;;5.00;3.40;;;;;;;5.03;61.55;97426.22;232994;1193;138037;-74
2023/02/25 19:19:47;;;;;;;6.80;4.70;;;;;;;5.06;61.98;97429.16;235514;1192;138568;-76
2023/02/25 19:24:53;;;;;;;8.00;5.00;;;;;;;5.07;62.22;97435.63;233605;1192;139229;-74
2023/02/25 19:29:59;;;;;;;7.60;5.50;;;;;;;5.01;62.44;97437.78;235322;1194;138398;-73
2023/02/25 19:35:05;;;;;;;7.80;4.70;;;;;;;4.94;62.55;97445.21;234909;1196;138658;-75
2023/02/25 19:40:13;;;;;;;6.50;4.40;;;;;;;4.93;62.92;97453.35;235305;1193;140422;-76
2023/02/25 19:45:21;;;;;;;7.10;3.90;;;;;;;5.04;62.43;97454.27;235377;1197;139577;-73
2023/02/25 19:50:35;;;;;;;9.50;6.00;;;;;;;5.10;62.35;97453.90;235271;1196;140056;-75
2023/02/25 19:55:42;;;;;;;6.20;4.20;;;;;;;5.14;62.20;97456.90;231175;1197;138635;-77
2023/02/25 20:00:49;;;;;;;5.70;4.00;;;;;;;5.23;62.08;97461.98;233325;1196;138400;-76
2023/02/25 20:05:53;;;;;;;4.30;3.00;;;;;;;5.22;62.04;97464.68;232860;1194;137788;-77
2023/02/25 20:10:57;;;;;;;5.30;3.40;;;;;;;5.09;62.29;97471.71;234694;1192;138742;-75
2023/02/25 20:16:02;;;;;;;6.00;3.20;;;;;;;5.04;62.12;97481.50;235380;1193;138693;-71
2023/02/25 20:21:08;;;;;;;100.60;62.50;;;;;;;5.05;62.85;97485.48;231703;1197;138104;-74
2023/02/25 20:26:14;;;;;;;5.10;3.50;;;;;;;5.04;62.88;97494.52;230281;1198;138972;-74
2023/02/25 20:31:18;;;;;;;5.30;3.10;;;;;;;4.92;63.02;97498.95;235131;1197;138132;-77
2023/02/25 20:36:35;;;;;;;5.00;3.20;;;;;;;4.81;63.33;97508.47;231214;1198;139935;-77
2023/02/25 20:41:44;;;;;;;4.50;3.40;;;;;;;4.58;63.65;97512.89;235337;1196;138768;-77
2023/02/25 20:46:50;;;;;;;4.90;3.30;;;;;;;4.57;64.03;97513.50;235239;1192;138763;-77
2023/02/25 20:51:55;;;;;;;6.50;3.40;;;;;;;4.51;64.42;97517.88;235058;1194;138353;-77
2023/02/25 20:56:59;;;;;;;5.70;3.50;;;;;;;4.58;64.37;97523.61;233310;1196;139796;-77
2023/02/25 21:02:04;;;;;;;4.40;3.40;;;;;;;4.67;64.24;97521.08;233407;1193;139277;-77
2023/02/25 21:07:19;;;;;;;7.10;3.80;;;;;;;4.69;64.27;97522.59;235346;1197;139216;-75
2023/02/25 21:12:23;;;;;;;5.20;3.70;;;;;;;4.60;64.23;97526.63;235562;1192;139224;-77
2023/02/25 21:17:27;;;;;;;6.40;3.60;;;;;;;4.62;64.47;97534.41;231282;1193;139218;-78
2023/02/25 21:22:30;;;;;;;7.50;4.00;;;;;;;4.64;64.38;97545.73;234755;1195;138461;-77
2023/02/25 21:27:35;;;;;;;6.50;4.60;;;;;;;4.62;64.52;97558.34;230579;1197;138496;-78
2023/02/25 21:32:41;;;;;;;6.30;5.30;;;;;;;4.64;64.42;97571.50;230957;1199;140372;-78
2023/02/25 21:37:45;;;;;;;7.70;5.30;;;;;;;4.61;64.69;97580.15;229196;1197;138337;-77
2023/02/25 21:42:54;;;;;;;6.70;5.20;;;;;;;4.58;64.48;97581.91;230255;1198;138637;-76
2023/02/25 21:47:58;;;;;;;6.90;4.80;;;;;;;4.50;64.97;97577.45;233947;1193;138101;-76
2023/02/25 21:53:03;;;;;;;7.00;4.90;;;;;;;4.43;65.48;97579.14;232453;1193;138796;-76
2023/02/25 21:58:07;;;;;;;8.50;5.20;;;;;;;4.44;65.66;97581.52;235547;1193;139771;-75
2023/02/25 22:03:15;;;;;;;8.00;5.00;;;;;;;4.59;65.46;97584.52;232423;1195;139220;-76
2023/02/25 22:08:19;;;;;;;7.40;4.90;;;;;;;4.71;65.59;97587.92;233126;1193;139046;-77
2023/02/25 22:13:32;;;;;;;6.90;5.30;;;;;;;4.75;65.70;97591.58;234099;1193;138916;-76
2023/02/25 22:18:38;;;;;;;8.40;5.50;;;;;;;4.82;65.74;97601.53;235696;1192;138936;-75
2023/02/25 22:23:44;;;;;;;6.20;5.20;;;;;;;4.81;65.47;97613.73;235560;1193;138608;-76
2023/02/25 22:28:57;;;;;;;8.90;5.50;;;;;;;4.67;65.56;97616.65;234252;1193;138510;-77
2023/02/25 22:34:07;;;;;;;7.90;5.50;;;;;;;4.62;65.92;97619.80;233502;1193;138264;-77
2023/02/25 22:39:11;;;;;;;8.20;5.50;;;;;;;4.62;65.98;97625.42;233595;1193;138557;-76
2023/02/25 22:44:16;;;;;;;8.60;5.90;;;;;;;4.58;66.32;97634.43;235495;1193;139348;-76
2023/02/25 22:49:20;;;;;;;9.00;6.20;;;;;;;4.57;66.04;97638.04;235252;1193;139297;-76
2023/02/25 22:54:24;;;;;;;7.10;5.30;;;;;;;4.56;66.04;97642.31;235424;1197;138006;-76
2023/02/25 22:59:29;;;;;;;8.70;5.90;;;;;;;4.61;66.20;97644.26;235433;1193;138773;-76
2023/02/25 23:04:33;;;;;;;8.80;6.10;;;;;;;4.79;65.78;97653.02;235360;1193;139744;-76
2023/02/25 23:09:38;;;;;;;6.40;4.90;;;;;;;4.88;64.98;97668.08;232776;1193;138771;-75
2023/02/25 23:14:42;;;;;;;7.20;4.70;;;;;;;4.94;64.45;97675.80;231791;1198;138637;-76
2023/02/25 23:19:46;;;;;;;8.20;4.30;;;;;;;4.94;64.31;97682.64;233062;1194;138544;-75
2023/02/25 23:24:50;;;;;;;8.70;4.20;;;;;;;4.81;64.09;97690.52;235338;1193;139185;-75
2023/02/25 23:29:54;;;;;;;6.30;4.10;;;;;;;4.80;64.12;97699.16;235291;1196;138948;-77
2023/02/25 23:34:59;;;;;;;5.50;3.20;;;;;;;4.85;63.56;97706.42;229841;1199;138491;-76
2023/02/25 23:40:05;;;;;;;4.50;2.90;;;;;;;4.84;62.91;97713.50;235222;1197;140344;-74
2023/02/25 23:45:19;;;;;;;3.80;2.60;;;;;;;4.82;62.93;97721.31;232391;1193;138870;-75
2023/02/25 23:50:23;;;;;;;3.50;2.70;;;;;;;4.87;62.78;97730.49;234507;1194;138647;-75
2023/02/25 23:55:28;;;;;;;4.60;2.90;;;;;;;4.88;62.23;97731.50;235415;1193;138747;-76
